Time,TemperatureF,DewpointF,PressureIn,WindDirection,WindDirectionDegrees,WindSpeedMPH,WindSpeedGustMPH,Humidity,HourlyPrecipIn,Conditions,Clouds,dailyrainin,SoftwareType,DateUTC
2013-05-05 00:01:00,60.2,57.3,29.81,SSE,165,6.0,12.0,90,0.00,,,0.00,Wunderground v.1.15,2013-05-05 04:01:00,
2013-05-05 00:02:00,60.2,57.3,29.81,East,92,6.0,6.0,90,0.00,,,0.00,Wunderground v.1.15,2013-05-05 04:02:00,
2013-05-05 00:04:00,60.2,57.3,29.81,ESE,110,6.0,7.0,90,0.00,,,0.00,Wunderground v.1.15,2013-05-05 04:04:00,
2013-05-05 00:05:00,60.2,57.3,29.81,East,101,6.0,7.0,90,0.00,,,0.00,Wunderground v.1.15,2013-05-05 04:05:00,
2013-05-05 00:10:00,60.1,57.2,29.81,East,90,5.0,12.0,90,0.00,,,0.00,Wunderground v.1.15,2013-05-05 04:10:00,
2013-05-05 00:15:00,60.1,57.2,29.81,East,93,5.0,6.0,90,0.00,,,0.00,Wunderground v.1.15,2013-05-05 04:15:00,
2013-05-05 00:20:00,59.9,57.0,29.81,ESE,117,6.0,11.0,90,0.00,,,0.00,Wunderground v.1.15,2013-05-05 04:20:00,
2013-05-05 00:25:00,59.8,56.6,29.81,ESE,106,6.0,11.0,89,0.00,,,0.00,Wunderground v.1.15,2013-05-05 04:25:00,
2013-05-05 00:30:00,59.8,56.6,29.81,SSE,148,7.0,11.0,89,0.00,,,0.00,Wunderground v.1.15,2013-05-05 04:30:00,
2013-05-05 00:35:00,59.8,56.6,29.81,ESE,115,6.0,7.0,89,0.00,,,0.00,Wunderground v.1.15,2013-05-05 04:35:00,
2013-05-05 00:40:00,59.8,56.6,29.81,East,101,6.0,12.0,89,0.00,,,0.00,Wunderground v.1.15,2013-05-05 04:40:00,
2013-05-05 00:45:00,59.8,56.6,29.82,SSE,160,6.0,10.0,89,0.00,,,0.00,Wunderground v.1.15,2013-05-05 04:45:00,
2013-05-05 00:50:00,59.8,56.6,29.82,ESE,107,5.0,10.0,89,0.00,,,0.00,Wunderground v.1.15,2013-05-05 04:50:00,
2013-05-05 00:55:00,59.8,56.2,29.82,East,81,4.0,13.0,88,0.00,,,0.00,Wunderground v.1.15,2013-05-05 04:55:00,
2013-05-05 01:01:00,59.8,56.2,29.81,East,88,5.0,13.0,88,0.00,,,0.00,Wunderground v.1.15,2013-05-05 05:01:00,
2013-05-05 01:06:00,59.8,56.2,29.81,East,82,5.0,6.0,88,0.00,,,0.00,Wunderground v.1.15,2013-05-05 05:06:00,
2013-05-05 01:11:00,59.8,56.2,29.81,NE,42,5.0,10.0,88,0.00,,,0.00,Wunderground v.1.15,2013-05-05 05:11:00,
2013-05-05 01:16:00,59.8,56.2,29.81,ESE,121,6.0,10.0,88,0.00,,,0.00,Wunderground v.1.15,2013-05-05 05:16:00,
2013-05-05 01:21:00,59.8,56.2,29.81,ESE,103,6.0,13.0,88,0.00,,,0.00,Wunderground v.1.15,2013-05-05 05:21:00,
2013-05-05 01:26:00,59.8,55.9,29.81,East,88,6.0,6.0,87,0.00,,,0.00,Wunderground v.1.15,2013-05-05 05:26:00,
2013-05-05 01:31:00,59.8,55.9,29.80,NE,51,5.0,10.0,87,0.00,,,0.00,Wunderground v.1.15,2013-05-05 05:31:00,
2013-05-05 01:36:00,59.8,55.9,29.80,ENE,62,5.0,9.0,87,0.00,,,0.00,Wunderground v.1.15,2013-05-05 05:36:00,
2013-05-05 01:41:00,59.8,55.9,29.80,East,99,5.0,9.0,87,0.00,,,0.00,Wunderground v.1.15,2013-05-05 05:41:00,
2013-05-05 01:47:00,59.6,55.7,29.80,ESE,105,5.0,18.0,87,0.00,,,0.00,Wunderground v.1.15,2013-05-05 05:47:00,
2013-05-05 01:52:00,59.6,55.7,29.80,East,83,5.0,5.0,87,0.00,,,0.00,Wunderground v.1.15,2013-05-05 05:52:00,
2013-05-05 01:57:00,59.5,55.6,29.80,ESE,117,5.0,7.0,87,0.00,,,0.00,Wunderground v.1.15,2013-05-05 05:57:00,
2013-05-05 02:02:00,59.5,55.6,29.79,East,93,5.0,5.0,87,0.00,,,0.00,Wunderground v.1.15,2013-05-05 06:02:00,
2013-05-05 02:07:00,59.5,55.6,29.79,NE,49,4.0,10.0,87,0.00,,,0.00,Wunderground v.1.15,2013-05-05 06:07:00,
2013-05-05 02:13:00,59.3,55.4,29.79,East,98,4.0,4.0,87,0.00,,,0.00,Wunderground v.1.15,2013-05-05 06:13:00,
2013-05-05 02:18:00,59.3,55.4,29.78,ESE,110,5.0,15.0,87,0.00,,,0.00,Wunderground v.1.15,2013-05-05 06:18:00,
2013-05-05 02:23:00,59.3,55.4,29.78,ESE,123,5.0,11.0,87,0.00,,,0.00,Wunderground v.1.15,2013-05-05 06:23:00,
2013-05-05 02:28:00,59.3,55.4,29.78,SE,135,5.0,11.0,87,0.00,,,0.00,Wunderground v.1.15,2013-05-05 06:28:00,
2013-05-05 02:34:00,59.3,55.7,29.78,SE,143,4.0,5.0,88,0.00,,,0.00,Wunderground v.1.15,2013-05-05 06:34:00,
2013-05-05 02:40:00,59.3,55.7,29.78,East,87,3.0,5.0,88,0.00,,,0.00,Wunderground v.1.15,2013-05-05 06:40:00,
2013-05-05 02:45:00,59.2,55.6,29.77,SE,125,4.0,10.0,88,0.00,,,0.00,Wunderground v.1.15,2013-05-05 06:45:00,
2013-05-05 02:50:00,59.2,55.6,29.77,ESE,103,5.0,11.0,88,0.00,,,0.00,Wunderground v.1.15,2013-05-05 06:50:00,
2013-05-05 02:55:00,59.2,55.6,29.77,East,96,4.0,10.0,88,0.00,,,0.00,Wunderground v.1.15,2013-05-05 06:55:00,
2013-05-05 03:00:00,59.2,55.6,29.77,ESE,121,5.0,12.0,88,0.00,,,0.00,Wunderground v.1.15,2013-05-05 07:00:00,
2013-05-05 03:05:00,59.2,55.6,29.77,ESE,111,6.0,9.0,88,0.00,,,0.00,Wunderground v.1.15,2013-05-05 07:05:00,
2013-05-05 03:11:00,59.2,55.6,29.77,SE,138,6.0,9.0,88,0.00,,,0.00,Wunderground v.1.15,2013-05-05 07:11:00,
2013-05-05 03:16:00,59.2,55.6,29.76,ESE,117,6.0,14.0,88,0.00,,,0.00,Wunderground v.1.15,2013-05-05 07:16:00,
2013-05-05 03:21:00,59.2,55.6,29.76,East,101,6.0,14.0,88,0.00,,,0.00,Wunderground v.1.15,2013-05-05 07:21:00,
2013-05-05 03:26:00,59.0,55.4,29.76,SE,126,5.0,9.0,88,0.00,,,0.00,Wunderground v.1.15,2013-05-05 07:26:00,
2013-05-05 03:31:00,59.0,55.4,29.76,East,90,5.0,10.0,88,0.00,,,0.00,Wunderground v.1.15,2013-05-05 07:31:00,
2013-05-05 03:36:00,59.0,55.4,29.76,East,95,5.0,10.0,88,0.00,,,0.00,Wunderground v.1.15,2013-05-05 07:36:00,
2013-05-05 03:41:00,59.0,55.4,29.76,NNE,32,5.0,15.0,88,0.00,,,0.00,Wunderground v.1.15,2013-05-05 07:41:00,
2013-05-05 03:46:00,58.9,55.4,29.76,ESE,110,6.0,9.0,88,0.00,,,0.00,Wunderground v.1.15,2013-05-05 07:46:00,
2013-05-05 03:51:00,58.9,55.4,29.76,East,83,5.0,9.0,88,0.00,,,0.00,Wunderground v.1.15,2013-05-05 07:51:00,
2013-05-05 03:56:00,58.9,55.4,29.76,ENE,67,5.0,14.0,88,0.00,,,0.00,Wunderground v.1.15,2013-05-05 07:56:00,
2013-05-05 04:02:00,58.9,55.4,29.76,ESE,115,6.0,6.0,88,0.00,,,0.00,Wunderground v.1.15,2013-05-05 08:02:00,
2013-05-05 04:07:00,58.9,55.4,29.76,SSE,157,6.0,18.0,88,0.00,,,0.00,Wunderground v.1.15,2013-05-05 08:07:00,
2013-05-05 04:13:00,58.9,55.7,29.76,SE,128,6.0,6.0,89,0.00,,,0.00,Wunderground v.1.15,2013-05-05 08:13:00,
2013-05-05 04:18:00,59.0,55.8,29.75,ESE,111,6.0,12.0,89,0.00,,,0.00,Wunderground v.1.15,2013-05-05 08:18:00,
2013-05-05 04:23:00,59.0,55.8,29.75,ESE,116,6.0,7.0,89,0.00,,,0.00,Wunderground v.1.15,2013-05-05 08:23:00,
2013-05-05 04:28:00,59.0,55.8,29.75,East,84,6.0,13.0,89,0.00,,,0.00,Wunderground v.1.15,2013-05-05 08:28:00,
2013-05-05 04:33:00,59.0,55.8,29.76,SSE,147,7.0,8.0,89,0.00,,,0.00,Wunderground v.1.15,2013-05-05 08:33:00,
2013-05-05 04:38:00,58.9,55.7,29.76,ESE,118,8.0,11.0,89,0.00,,,0.00,Wunderground v.1.15,2013-05-05 08:38:00,
2013-05-05 04:44:00,58.9,56.0,29.75,East,98,7.0,10.0,90,0.00,,,0.00,Wunderground v.1.15,2013-05-05 08:44:00,
2013-05-05 04:49:00,58.9,56.0,29.75,ESE,109,6.0,10.0,90,0.00,,,0.00,Wunderground v.1.15,2013-05-05 08:49:00,
2013-05-05 04:54:00,58.9,56.0,29.75,ESE,123,5.0,9.0,90,0.00,,,0.00,Wunderground v.1.15,2013-05-05 08:54:00,
2013-05-05 04:59:00,58.9,56.3,29.75,North,360,5.0,10.0,91,0.00,,,0.00,Wunderground v.1.15,2013-05-05 08:59:00,
2013-05-05 05:04:00,58.9,56.3,29.75,ESE,121,5.0,16.0,91,0.00,,,0.00,Wunderground v.1.15,2013-05-05 09:04:00,
2013-05-05 05:09:00,58.9,56.3,29.75,East,92,5.0,16.0,91,0.00,,,0.00,Wunderground v.1.15,2013-05-05 09:09:00,
2013-05-05 05:14:00,58.9,56.3,29.75,East,101,6.0,13.0,91,0.00,,,0.00,Wunderground v.1.15,2013-05-05 09:14:00,
2013-05-05 05:19:00,58.9,56.3,29.75,ESE,104,7.0,13.0,91,0.00,,,0.00,Wunderground v.1.15,2013-05-05 09:19:00,
2013-05-05 05:24:00,59.0,56.4,29.75,North,351,6.0,7.0,91,0.00,,,0.00,Wunderground v.1.15,2013-05-05 09:24:00,
2013-05-05 05:30:00,59.0,56.4,29.74,East,95,6.0,11.0,91,0.00,,,0.00,Wunderground v.1.15,2013-05-05 09:30:00,
2013-05-05 05:35:00,59.0,56.4,29.74,NNE,13,6.0,7.0,91,0.00,,,0.00,Wunderground v.1.15,2013-05-05 09:35:00,
2013-05-05 05:40:00,59.0,56.7,29.74,East,101,6.0,10.0,92,0.00,,,0.00,Wunderground v.1.15,2013-05-05 09:40:00,
2013-05-05 05:45:00,59.0,56.7,29.75,SE,137,6.0,14.0,92,0.00,,,0.00,Wunderground v.1.15,2013-05-05 09:45:00,
2013-05-05 05:50:00,59.0,56.7,29.75,East,90,7.0,15.0,92,0.00,,,0.00,Wunderground v.1.15,2013-05-05 09:50:00,
2013-05-05 05:55:00,59.0,56.7,29.75,ESE,112,7.0,10.0,92,0.00,,,0.00,Wunderground v.1.15,2013-05-05 09:55:00,
2013-05-05 06:00:00,59.0,56.7,29.75,ENE,73,7.0,10.0,92,0.00,,,0.00,Wunderground v.1.15,2013-05-05 10:00:00,
2013-05-05 06:05:00,59.0,56.7,29.75,East,95,6.0,9.0,92,0.00,,,0.00,Wunderground v.1.15,2013-05-05 10:05:00,
2013-05-05 06:10:00,58.9,56.6,29.75,ESE,112,5.0,9.0,92,0.00,,,0.00,Wunderground v.1.15,2013-05-05 10:10:00,
2013-05-05 06:15:00,58.9,56.6,29.75,ESE,105,5.0,5.0,92,0.00,,,0.00,Wunderground v.1.15,2013-05-05 10:15:00,
2013-05-05 06:21:00,58.9,56.6,29.75,SE,124,5.0,10.0,92,0.00,,,0.00,Wunderground v.1.15,2013-05-05 10:21:00,
2013-05-05 06:26:00,58.9,56.6,29.75,SE,128,5.0,6.0,92,0.00,,,0.00,Wunderground v.1.15,2013-05-05 10:26:00,
2013-05-05 06:31:00,58.9,56.6,29.75,ESE,121,4.0,6.0,92,0.00,,,0.00,Wunderground v.1.15,2013-05-05 10:31:00,
2013-05-05 06:36:00,58.9,56.6,29.75,ENE,63,5.0,13.0,92,0.00,,,0.00,Wunderground v.1.15,2013-05-05 10:36:00,
2013-05-05 06:42:00,58.9,56.6,29.75,ENE,60,5.0,10.0,92,0.00,,,0.00,Wunderground v.1.15,2013-05-05 10:42:00,
2013-05-05 06:47:00,58.9,56.6,29.75,ESE,111,6.0,10.0,92,0.00,,,0.00,Wunderground v.1.15,2013-05-05 10:47:00,
2013-05-05 06:52:00,58.9,56.6,29.75,SE,137,6.0,7.0,92,0.00,,,0.00,Wunderground v.1.15,2013-05-05 10:52:00,
2013-05-05 06:57:00,58.9,56.6,29.75,ENE,74,7.0,11.0,92,0.00,,,0.00,Wunderground v.1.15,2013-05-05 10:57:00,
2013-05-05 07:02:00,59.0,56.7,29.75,East,96,7.0,7.0,92,0.00,,,0.00,Wunderground v.1.15,2013-05-05 11:02:00,
2013-05-05 07:08:00,59.0,56.4,29.75,ESE,102,5.0,10.0,91,0.00,,,0.00,Wunderground v.1.15,2013-05-05 11:08:00,
2013-05-05 07:13:00,59.0,56.4,29.75,East,85,4.0,4.0,91,0.00,,,0.00,Wunderground v.1.15,2013-05-05 11:13:00,
2013-05-05 07:18:00,59.0,56.4,29.76,ESE,104,3.0,7.0,91,0.00,,,0.00,Wunderground v.1.15,2013-05-05 11:18:00,
2013-05-05 07:24:00,59.2,56.6,29.76,ESE,109,4.0,4.0,91,0.00,,,0.00,Wunderground v.1.15,2013-05-05 11:24:00,
2013-05-05 07:29:00,59.2,56.6,29.77,SE,134,5.0,9.0,91,0.00,,,0.00,Wunderground v.1.15,2013-05-05 11:29:00,
2013-05-05 07:34:00,59.2,56.6,29.77,ESE,114,5.0,10.0,91,0.00,,,0.00,Wunderground v.1.15,2013-05-05 11:34:00,
2013-05-05 07:39:00,59.2,56.6,29.77,East,97,4.0,10.0,91,0.00,,,0.00,Wunderground v.1.15,2013-05-05 11:39:00,
2013-05-05 07:44:00,59.3,56.7,29.77,NE,34,5.0,5.0,91,0.00,,,0.00,Wunderground v.1.15,2013-05-05 11:44:00,
2013-05-05 07:50:00,59.3,56.7,29.77,East,95,5.0,13.0,91,0.00,,,0.00,Wunderground v.1.15,2013-05-05 11:50:00,
2013-05-05 07:55:00,59.5,56.9,29.77,ESE,109,6.0,7.0,91,0.00,,,0.00,Wunderground v.1.15,2013-05-05 11:55:00,
2013-05-05 08:00:00,59.5,56.9,29.77,SSE,153,7.0,10.0,91,0.00,,,0.00,Wunderground v.1.15,2013-05-05 12:00:00,
2013-05-05 08:06:00,59.6,57.0,29.77,East,86,5.0,10.0,91,0.00,,,0.00,Wunderground v.1.15,2013-05-05 12:06:00,
2013-05-05 08:11:00,59.6,57.0,29.77,ESE,113,5.0,13.0,91,0.00,,,0.00,Wunderground v.1.15,2013-05-05 12:11:00,
2013-05-05 08:17:00,59.8,57.2,29.77,East,89,5.0,7.0,91,0.00,,,0.00,Wunderground v.1.15,2013-05-05 12:17:00,
2013-05-05 08:22:00,59.8,57.2,29.77,East,92,6.0,10.0,91,0.00,,,0.00,Wunderground v.1.15,2013-05-05 12:22:00,
2013-05-05 08:27:00,59.9,57.3,29.77,ESE,116,6.0,14.0,91,0.00,,,0.00,Wunderground v.1.15,2013-05-05 12:27:00,
2013-05-05 08:32:00,59.9,57.3,29.78,ESE,117,5.0,5.0,91,0.00,,,0.00,Wunderground v.1.15,2013-05-05 12:32:00,
2013-05-05 08:37:00,59.9,57.3,29.78,East,101,4.0,9.0,91,0.00,,,0.00,Wunderground v.1.15,2013-05-05 12:37:00,
2013-05-05 08:42:00,60.2,57.6,29.78,ESE,123,6.0,7.0,91,0.00,,,0.00,Wunderground v.1.15,2013-05-05 12:42:00,
2013-05-05 08:47:00,60.5,57.9,29.77,ESE,108,7.0,17.0,91,0.00,,,0.00,Wunderground v.1.15,2013-05-05 12:47:00,
2013-05-05 08:52:00,61.0,58.4,29.77,SSE,148,7.0,14.0,91,0.00,,,0.00,Wunderground v.1.15,2013-05-05 12:52:00,
2013-05-05 08:57:00,61.3,58.3,29.77,East,101,6.0,16.0,90,0.00,,,0.00,Wunderground v.1.15,2013-05-05 12:57:00,
2013-05-05 09:02:00,61.5,58.2,29.77,East,86,6.0,6.0,89,0.00,,,0.00,Wunderground v.1.15,2013-05-05 13:02:00,
2013-05-05 09:08:00,61.8,58.5,29.77,East,86,6.0,7.0,89,0.00,,,0.00,Wunderground v.1.15,2013-05-05 13:08:00,
2013-05-05 09:13:00,62.0,58.7,29.77,ENE,76,6.0,9.0,89,0.00,,,0.00,Wunderground v.1.15,2013-05-05 13:13:00,
2013-05-05 09:18:00,62.1,58.8,29.76,NNE,32,7.0,11.0,89,0.00,,,0.00,Wunderground v.1.15,2013-05-05 13:18:00,
2013-05-05 09:23:00,62.3,58.7,29.76,East,84,7.0,10.0,88,0.00,,,0.00,Wunderground v.1.15,2013-05-05 13:23:00,
2013-05-05 09:28:00,62.4,58.8,29.76,East,92,6.0,10.0,88,0.00,,,0.00,Wunderground v.1.15,2013-05-05 13:28:00,
2013-05-05 09:33:00,62.7,59.1,29.77,SE,132,6.0,7.0,88,0.00,,,0.00,Wunderground v.1.15,2013-05-05 13:33:00,
2013-05-05 09:38:00,62.9,59.3,29.77,ESE,107,6.0,7.0,88,0.00,,,0.00,Wunderground v.1.15,2013-05-05 13:38:00,
2013-05-05 09:44:00,63.1,59.2,29.77,East,89,7.0,13.0,87,0.00,,,0.00,Wunderground v.1.15,2013-05-05 13:44:00,
2013-05-05 09:50:00,63.1,59.2,29.77,East,90,7.0,21.0,87,0.00,,,0.00,Wunderground v.1.15,2013-05-05 13:50:00,
2013-05-05 09:55:00,63.1,59.5,29.77,NNW,342,6.0,9.0,88,0.00,,,0.00,Wunderground v.1.15,2013-05-05 13:55:00,
2013-05-05 10:00:00,62.9,59.6,29.77,SE,146,4.0,9.0,89,0.00,,,0.00,Wunderground v.1.15,2013-05-05 14:00:00,
2013-05-05 10:05:00,62.7,59.4,29.77,ENE,74,4.0,11.0,89,0.00,,,0.00,Wunderground v.1.15,2013-05-05 14:05:00,
2013-05-05 10:10:00,62.6,59.3,29.77,ESE,121,6.0,11.0,89,0.00,,,0.00,Wunderground v.1.15,2013-05-05 14:10:00,
2013-05-05 10:15:00,62.4,59.7,29.77,East,100,6.0,9.0,91,0.00,,,0.00,Wunderground v.1.15,2013-05-05 14:15:00,
2013-05-05 10:21:00,62.4,59.7,29.77,East,96,5.0,15.0,91,0.00,,,0.00,Wunderground v.1.15,2013-05-05 14:21:00,
2013-05-05 10:26:00,62.4,60.0,29.77,SSE,150,6.0,9.0,92,0.00,,,0.00,Wunderground v.1.15,2013-05-05 14:26:00,
2013-05-05 10:31:00,62.4,60.0,29.76,East,81,7.0,9.0,92,0.00,,,0.00,Wunderground v.1.15,2013-05-05 14:31:00,
2013-05-05 10:36:00,62.6,60.2,29.76,ESE,118,7.0,13.0,92,0.00,,,0.00,Wunderground v.1.15,2013-05-05 14:36:00,
2013-05-05 10:41:00,62.6,60.2,29.76,NE,47,8.0,13.0,92,0.00,,,0.00,Wunderground v.1.15,2013-05-05 14:41:00,
2013-05-05 10:46:00,62.9,60.5,29.77,ESE,113,8.0,13.0,92,0.00,,,0.00,Wunderground v.1.15,2013-05-05 14:46:00,
2013-05-05 10:51:00,63.1,60.4,29.77,ESE,108,7.0,14.0,91,0.00,,,0.00,Wunderground v.1.15,2013-05-05 14:51:00,
2013-05-05 10:56:00,63.4,60.7,29.77,East,92,7.0,10.0,91,0.00,,,0.00,Wunderground v.1.15,2013-05-05 14:56:00,
2013-05-05 11:01:00,63.5,60.5,29.77,ESE,113,7.0,10.0,90,0.00,,,0.00,Wunderground v.1.15,2013-05-05 15:01:00,
2013-05-05 11:06:00,63.5,60.5,29.77,SE,140,7.0,8.0,90,0.00,,,0.00,Wunderground v.1.15,2013-05-05 15:06:00,
2013-05-05 11:11:00,63.7,60.4,29.77,ESE,116,8.0,17.0,89,0.00,,,0.00,Wunderground v.1.15,2013-05-05 15:11:00,
2013-05-05 11:17:00,64.0,60.7,29.77,ESE,120,8.0,15.0,89,0.00,,,0.00,Wunderground v.1.15,2013-05-05 15:17:00,
2013-05-05 11:22:00,64.3,60.7,29.77,NE,39,7.0,7.0,88,0.00,,,0.00,Wunderground v.1.15,2013-05-05 15:22:00,
2013-05-05 11:27:00,64.7,62.0,29.77,ESE,119,7.0,10.0,91,0.00,,,0.00,Wunderground v.1.15,2013-05-05 15:27:00,
2013-05-05 11:32:00,64.8,60.8,29.77,ESE,106,6.0,6.0,87,0.00,,,0.00,Wunderground v.1.15,2013-05-05 15:32:00,
2013-05-05 11:37:00,65.0,61.0,29.77,ENE,58,6.0,12.0,87,0.00,,,0.00,Wunderground v.1.15,2013-05-05 15:37:00,
2013-05-05 11:42:00,65.3,61.3,29.77,SE,142,6.0,7.0,87,0.00,,,0.00,Wunderground v.1.15,2013-05-05 15:42:00,
2013-05-05 11:47:00,65.5,61.2,29.77,East,90,7.0,12.0,86,0.00,,,0.00,Wunderground v.1.15,2013-05-05 15:47:00,
2013-05-05 11:52:00,66.0,61.0,29.77,ENE,74,8.0,14.0,84,0.00,,,0.00,Wunderground v.1.15,2013-05-05 15:52:00,
2013-05-05 11:57:00,66.4,61.4,29.77,SE,142,9.0,14.0,84,0.00,,,0.00,Wunderground v.1.15,2013-05-05 15:57:00,
2013-05-05 12:02:00,67.1,61.4,29.77,ESE,111,7.0,9.0,82,0.00,,,0.00,Wunderground v.1.15,2013-05-05 16:02:00,
2013-05-05 12:08:00,67.3,61.3,29.77,East,86,6.0,12.0,81,0.00,,,0.00,Wunderground v.1.15,2013-05-05 16:08:00,
2013-05-05 12:13:00,66.9,60.9,29.77,SE,131,7.0,8.0,81,0.00,,,0.00,Wunderground v.1.15,2013-05-05 16:13:00,
2013-05-05 12:18:00,66.8,61.1,29.78,ESE,105,6.0,8.0,82,0.00,,,0.00,Wunderground v.1.15,2013-05-05 16:18:00,
2013-05-05 12:23:00,66.6,60.9,29.78,East,98,5.0,6.0,82,0.00,,,0.00,Wunderground v.1.15,2013-05-05 16:23:00,
2013-05-05 12:28:00,66.6,61.3,29.78,ESE,116,6.0,11.0,83,0.00,,,0.00,Wunderground v.1.15,2013-05-05 16:28:00,
2013-05-05 12:33:00,66.6,61.3,29.79,ESE,119,5.0,5.0,83,0.00,,,0.00,Wunderground v.1.15,2013-05-05 16:33:00,
2013-05-05 12:38:00,66.6,61.6,29.79,East,99,4.0,7.0,84,0.00,,,0.00,Wunderground v.1.15,2013-05-05 16:38:00,
2013-05-05 12:43:00,66.4,61.4,29.79,East,98,5.0,9.0,84,0.00,,,0.00,Wunderground v.1.15,2013-05-05 16:43:00,
2013-05-05 12:48:00,66.3,61.3,29.78,NE,36,6.0,11.0,84,0.00,,,0.00,Wunderground v.1.15,2013-05-05 16:48:00,
2013-05-05 12:54:00,66.1,61.1,29.78,ENE,69,5.0,9.0,84,0.00,,,0.00,Wunderground v.1.15,2013-05-05 16:54:00,
2013-05-05 12:59:00,65.8,61.2,29.77,ESE,102,5.0,9.0,85,0.00,,,0.00,Wunderground v.1.15,2013-05-05 16:59:00,
2013-05-05 13:05:00,65.6,61.3,29.77,ESE,102,5.0,9.0,86,0.00,,,0.00,Wunderground v.1.15,2013-05-05 17:05:00,
2013-05-05 13:10:00,65.3,61.3,29.77,SE,126,6.0,12.0,87,0.00,,,0.00,Wunderground v.1.15,2013-05-05 17:10:00,
2013-05-05 13:15:00,65.2,61.2,29.77,SE,130,5.0,7.0,87,0.00,,,0.00,Wunderground v.1.15,2013-05-05 17:15:00,
2013-05-05 13:20:00,65.3,62.0,29.77,ESE,123,3.0,7.0,89,0.00,,,0.00,Wunderground v.1.15,2013-05-05 17:20:00,
2013-05-05 13:25:00,65.6,62.3,29.77,East,98,4.0,6.0,89,0.00,,,0.00,Wunderground v.1.15,2013-05-05 17:25:00,
2013-05-05 13:31:00,66.0,62.7,29.75,ESE,120,6.0,13.0,89,0.00,,,0.00,Wunderground v.1.15,2013-05-05 17:31:00,
2013-05-05 13:36:00,66.6,63.3,29.75,NE,55,6.0,12.0,89,0.00,,,0.00,Wunderground v.1.15,2013-05-05 17:36:00,
2013-05-05 13:41:00,67.3,63.6,29.75,SE,138,5.0,12.0,88,0.00,,,0.00,Wunderground v.1.15,2013-05-05 17:41:00,
2013-05-05 13:46:00,68.3,63.9,29.75,ENE,75,4.0,9.0,86,0.00,,,0.00,Wunderground v.1.15,2013-05-05 17:46:00,
2013-05-05 13:51:00,69.3,63.9,29.75,SE,128,5.0,12.0,83,0.00,,,0.00,Wunderground v.1.15,2013-05-05 17:51:00,
2013-05-05 13:56:00,70.1,64.3,29.75,ENE,75,5.0,12.0,82,0.00,,,0.00,Wunderground v.1.15,2013-05-05 17:56:00,
2013-05-05 14:01:00,70.4,63.6,29.76,SE,141,4.0,12.0,79,0.00,,,0.00,Wunderground v.1.15,2013-05-05 18:01:00,
2013-05-05 14:06:00,70.8,63.6,29.76,ESE,117,4.0,16.0,78,0.00,,,0.00,Wunderground v.1.15,2013-05-05 18:06:00,
2013-05-05 14:11:00,70.8,63.2,29.76,ESE,114,6.0,16.0,77,0.00,,,0.00,Wunderground v.1.15,2013-05-05 18:11:00,
2013-05-05 14:17:00,70.9,63.3,29.75,SE,129,4.0,10.0,77,0.00,,,0.00,Wunderground v.1.15,2013-05-05 18:17:00,
2013-05-05 14:22:00,70.9,63.0,29.75,East,97,3.0,4.0,76,0.00,,,0.00,Wunderground v.1.15,2013-05-05 18:22:00,
2013-05-05 14:27:00,70.8,63.2,29.75,ESE,117,3.0,4.0,77,0.00,,,0.00,Wunderground v.1.15,2013-05-05 18:27:00,
2013-05-05 14:32:00,70.9,62.6,29.75,SE,132,3.0,6.0,75,0.00,,,0.00,Wunderground v.1.15,2013-05-05 18:32:00,
2013-05-05 14:37:00,70.9,62.2,29.75,ESE,119,5.0,12.0,74,0.00,,,0.00,Wunderground v.1.15,2013-05-05 18:37:00,
2013-05-05 14:43:00,71.3,62.2,29.75,SSW,200,5.0,8.0,73,0.00,,,0.00,Wunderground v.1.15,2013-05-05 18:43:00,
2013-05-05 14:49:00,72.1,61.4,29.75,SE,140,5.0,8.0,69,0.00,,,0.00,Wunderground v.1.15,2013-05-05 18:49:00,
2013-05-05 14:54:00,72.3,60.3,29.75,SSW,205,6.0,7.0,66,0.00,,,0.00,Wunderground v.1.15,2013-05-05 18:54:00,
2013-05-05 14:59:00,72.1,60.1,29.74,SE,145,7.0,11.0,66,0.00,,,0.00,Wunderground v.1.15,2013-05-05 18:59:00,
2013-05-05 15:04:00,72.1,60.1,29.74,ESE,105,5.0,6.0,66,0.00,,,0.00,Wunderground v.1.15,2013-05-05 19:04:00,
2013-05-05 15:09:00,71.8,59.4,29.74,East,97,6.0,15.0,65,0.00,,,0.00,Wunderground v.1.15,2013-05-05 19:09:00,
2013-05-05 15:14:00,71.8,59.8,29.74,South,169,6.0,6.0,66,0.00,,,0.00,Wunderground v.1.15,2013-05-05 19:14:00,
2013-05-05 15:19:00,71.8,59.8,29.74,South,183,5.0,11.0,66,0.00,,,0.00,Wunderground v.1.15,2013-05-05 19:19:00,
2013-05-05 15:25:00,71.5,60.4,29.74,ENE,76,5.0,11.0,68,0.00,,,0.00,Wunderground v.1.15,2013-05-05 19:25:00,
2013-05-05 15:30:00,71.3,60.2,29.74,South,173,4.0,11.0,68,0.00,,,0.00,Wunderground v.1.15,2013-05-05 19:30:00,
2013-05-05 15:35:00,71.1,60.4,29.74,SSE,167,4.0,5.0,69,0.00,,,0.00,Wunderground v.1.15,2013-05-05 19:35:00,
2013-05-05 15:40:00,71.1,60.4,29.74,East,88,4.0,11.0,69,0.00,,,0.00,Wunderground v.1.15,2013-05-05 19:40:00,
2013-05-05 15:45:00,70.9,60.2,29.73,SE,133,4.0,14.0,69,0.00,,,0.00,Wunderground v.1.15,2013-05-05 19:45:00,
2013-05-05 15:51:00,70.9,60.2,29.73,SE,136,4.0,14.0,69,0.00,,,0.00,Wunderground v.1.15,2013-05-05 19:51:00,
2013-05-05 15:56:00,71.1,59.6,29.73,SSE,159,5.0,5.0,67,0.00,,,0.00,Wunderground v.1.15,2013-05-05 19:56:00,
2013-05-05 16:01:00,71.3,59.8,29.72,SE,140,4.0,5.0,67,0.00,,,0.00,Wunderground v.1.15,2013-05-05 20:01:00,
2013-05-05 16:06:00,71.3,59.8,29.72,SSE,155,4.0,12.0,67,0.00,,,0.00,Wunderground v.1.15,2013-05-05 20:06:00,
2013-05-05 16:11:00,71.1,60.0,29.72,SE,134,3.0,12.0,68,0.00,,,0.00,Wunderground v.1.15,2013-05-05 20:11:00,
2013-05-05 16:16:00,71.1,60.0,29.71,SE,129,3.0,13.0,68,0.00,,,0.00,Wunderground v.1.15,2013-05-05 20:16:00,
2013-05-05 16:21:00,70.9,59.8,29.71,South,184,4.0,13.0,68,0.00,,,0.00,Wunderground v.1.15,2013-05-05 20:21:00,
2013-05-05 16:26:00,70.6,59.9,29.71,SE,136,5.0,6.0,69,0.00,,,0.00,Wunderground v.1.15,2013-05-05 20:26:00,
2013-05-05 16:31:00,70.4,60.1,29.71,ENE,76,4.0,8.0,70,0.00,,,0.00,Wunderground v.1.15,2013-05-05 20:31:00,
2013-05-05 16:36:00,70.3,60.1,29.71,SE,124,4.0,13.0,70,0.00,,,0.00,Wunderground v.1.15,2013-05-05 20:36:00,
2013-05-05 16:41:00,70.1,60.3,29.71,SE,125,3.0,13.0,71,0.00,,,0.00,Wunderground v.1.15,2013-05-05 20:41:00,
2013-05-05 16:47:00,69.9,60.5,29.71,SE,128,3.0,12.0,72,0.00,,,0.00,Wunderground v.1.15,2013-05-05 20:47:00,
2013-05-05 16:52:00,69.9,60.1,29.71,SE,128,3.0,3.0,71,0.00,,,0.00,Wunderground v.1.15,2013-05-05 20:52:00,
2013-05-05 16:57:00,69.8,60.4,29.71,SSE,150,2.0,3.0,72,0.00,,,0.00,Wunderground v.1.15,2013-05-05 20:57:00,
2013-05-05 17:02:00,69.6,60.6,29.72,SSE,164,2.0,2.0,73,0.00,,,0.00,Wunderground v.1.15,2013-05-05 21:02:00,
2013-05-05 17:07:00,69.4,61.1,29.72,ESE,105,2.0,2.0,75,0.00,,,0.00,Wunderground v.1.15,2013-05-05 21:07:00,
2013-05-05 17:13:00,69.1,61.2,29.72,SSE,150,2.0,2.0,76,0.00,,,0.00,Wunderground v.1.15,2013-05-05 21:13:00,
2013-05-05 17:19:00,69.1,61.9,29.70,East,84,2.0,5.0,78,0.00,,,0.00,Wunderground v.1.15,2013-05-05 21:19:00,
2013-05-05 17:24:00,69.1,61.2,29.70,SSE,147,3.0,4.0,76,0.00,,,0.00,Wunderground v.1.15,2013-05-05 21:24:00,
2013-05-05 17:29:00,69.1,61.2,29.71,SSE,161,3.0,5.0,76,0.00,,,0.00,Wunderground v.1.15,2013-05-05 21:29:00,
2013-05-05 17:34:00,69.1,61.2,29.71,SE,134,3.0,6.0,76,0.00,,,0.00,Wunderground v.1.15,2013-05-05 21:34:00,
2013-05-05 17:39:00,68.9,61.0,29.71,SSE,148,3.0,6.0,76,0.00,,,0.00,Wunderground v.1.15,2013-05-05 21:39:00,
2013-05-05 17:44:00,68.8,60.9,29.71,East,94,3.0,6.0,76,0.00,,,0.00,Wunderground v.1.15,2013-05-05 21:44:00,
2013-05-05 17:49:00,68.8,60.6,29.71,SE,133,4.0,6.0,75,0.00,,,0.00,Wunderground v.1.15,2013-05-05 21:49:00,
2013-05-05 17:54:00,68.6,60.7,29.71,East,96,4.0,4.0,76,0.00,,,0.00,Wunderground v.1.15,2013-05-05 21:54:00,
2013-05-05 17:59:00,68.4,61.3,29.70,ENE,78,4.0,8.0,78,0.00,,,0.00,Wunderground v.1.15,2013-05-05 21:59:00,
2013-05-05 18:04:00,68.1,61.7,29.70,SE,126,3.0,4.0,80,0.00,,,0.00,Wunderground v.1.15,2013-05-05 22:04:00,
2013-05-05 18:09:00,67.6,61.9,29.70,SE,124,1.0,4.0,82,0.00,,,0.01,Wunderground v.1.15,2013-05-05 22:09:00,
2013-05-05 18:15:00,67.1,62.1,29.72,East,101,1.0,4.0,84,0.12,,,0.02,Wunderground v.1.15,2013-05-05 22:15:00,
2013-05-05 18:20:00,66.6,62.3,29.72,SE,128,2.0,5.0,86,0.06,,,0.02,Wunderground v.1.15,2013-05-05 22:20:00,
2013-05-05 18:25:00,66.3,62.6,29.72,SE,144,4.0,10.0,88,0.04,,,0.02,Wunderground v.1.15,2013-05-05 22:25:00,
2013-05-05 18:30:00,66.0,62.7,29.70,SSE,157,4.0,10.0,89,0.00,,,0.02,Wunderground v.1.15,2013-05-05 22:30:00,
2013-05-05 18:35:00,66.0,62.7,29.70,East,86,3.0,4.0,89,0.00,,,0.02,Wunderground v.1.15,2013-05-05 22:35:00,
2013-05-05 18:40:00,65.8,62.5,29.70,East,92,4.0,7.0,89,0.00,,,0.02,Wunderground v.1.15,2013-05-05 22:40:00,
2013-05-05 18:45:00,65.6,62.3,29.70,SSE,148,4.0,12.0,89,0.00,,,0.02,Wunderground v.1.15,2013-05-05 22:45:00,
2013-05-05 18:50:00,65.6,61.9,29.70,ENE,78,4.0,12.0,88,0.00,,,0.02,Wunderground v.1.15,2013-05-05 22:50:00,
2013-05-05 18:55:00,65.5,61.9,29.70,SE,131,4.0,4.0,88,0.00,,,0.03,Wunderground v.1.15,2013-05-05 22:55:00,
2013-05-05 19:01:00,65.5,61.9,29.70,ESE,107,5.0,11.0,88,0.00,,,0.03,Wunderground v.1.15,2013-05-05 23:01:00,
2013-05-05 19:06:00,65.5,61.5,29.70,SE,128,6.0,12.0,87,0.00,,,0.03,Wunderground v.1.15,2013-05-05 23:06:00,
2013-05-05 19:11:00,65.6,61.6,29.70,ESE,116,5.0,12.0,87,0.00,,,0.03,Wunderground v.1.15,2013-05-05 23:11:00,
2013-05-05 19:16:00,65.6,61.6,29.71,ESE,112,3.0,7.0,87,0.00,,,0.03,Wunderground v.1.15,2013-05-05 23:16:00,
2013-05-05 19:21:00,65.6,61.9,29.71,ESE,121,2.0,7.0,88,0.00,,,0.03,Wunderground v.1.15,2013-05-05 23:21:00,
2013-05-05 19:26:00,65.8,62.1,29.71,SE,132,2.0,11.0,88,0.00,,,0.03,Wunderground v.1.15,2013-05-05 23:26:00,
2013-05-05 19:31:00,66.0,62.0,29.72,SE,136,3.0,11.0,87,0.00,,,0.03,Wunderground v.1.15,2013-05-05 23:31:00,
2013-05-05 19:36:00,66.0,62.0,29.72,ESE,123,3.0,12.0,87,0.00,,,0.03,Wunderground v.1.15,2013-05-05 23:36:00,
2013-05-05 19:42:00,66.1,62.1,29.72,SE,140,3.0,3.0,87,0.00,,,0.03,Wunderground v.1.15,2013-05-05 23:42:00,
2013-05-05 19:47:00,66.1,62.1,29.70,SE,138,2.0,9.0,87,0.00,,,0.03,Wunderground v.1.15,2013-05-05 23:47:00,
2013-05-05 19:52:00,66.1,62.1,29.70,ESE,113,2.0,6.0,87,0.00,,,0.03,Wunderground v.1.15,2013-05-05 23:52:00,
2013-05-05 19:57:00,66.0,62.0,29.70,ESE,119,2.0,6.0,87,0.00,,,0.03,Wunderground v.1.15,2013-05-05 23:57:00,
2013-05-05 20:02:00,66.0,62.3,29.70,SE,132,3.0,6.0,88,0.00,,,0.04,Wunderground v.1.15,2013-05-06 00:02:00,
2013-05-05 20:07:00,65.8,62.5,29.70,SE,131,4.0,6.0,89,0.15,,,0.05,Wunderground v.1.15,2013-05-06 00:07:00,
2013-05-05 20:13:00,65.6,62.6,29.70,SE,131,3.0,3.0,90,0.13,,,0.06,Wunderground v.1.15,2013-05-06 00:13:00,
2013-05-05 20:19:00,65.5,62.8,29.70,SSE,151,3.0,6.0,91,0.10,,,0.07,Wunderground v.1.15,2013-05-06 00:19:00,
2013-05-05 20:24:00,65.3,62.9,29.70,SE,134,2.0,3.0,92,0.13,,,0.08,Wunderground v.1.15,2013-05-06 00:24:00,
2013-05-05 20:29:00,65.3,62.9,29.71,SE,140,1.0,4.0,92,0.06,,,0.08,Wunderground v.1.15,2013-05-06 00:29:00,
2013-05-05 20:34:00,65.2,62.8,29.71,ESE,123,1.0,2.0,92,0.04,,,0.08,Wunderground v.1.15,2013-05-06 00:34:00,
2013-05-05 20:39:00,65.2,63.1,29.71,ESE,117,2.0,4.0,93,0.00,,,0.08,Wunderground v.1.15,2013-05-06 00:39:00,
2013-05-05 20:44:00,65.2,63.1,29.71,SSE,150,2.0,7.0,93,0.00,,,0.08,Wunderground v.1.15,2013-05-06 00:44:00,
2013-05-05 20:49:00,65.2,63.1,29.71,SE,126,3.0,12.0,93,0.00,,,0.08,Wunderground v.1.15,2013-05-06 00:49:00,
2013-05-05 20:54:00,65.2,63.1,29.71,SE,145,3.0,3.0,93,0.00,,,0.08,Wunderground v.1.15,2013-05-06 00:54:00,
2013-05-05 20:59:00,65.0,62.9,29.70,ESE,120,2.0,6.0,93,0.00,,,0.08,Wunderground v.1.15,2013-05-06 00:59:00,
2013-05-05 21:04:00,65.0,62.9,29.70,SE,145,3.0,9.0,93,0.00,,,0.08,Wunderground v.1.15,2013-05-06 01:04:00,
2013-05-05 21:10:00,65.0,62.9,29.70,ESE,111,2.0,9.0,93,0.00,,,0.08,Wunderground v.1.15,2013-05-06 01:10:00,
2013-05-05 21:15:00,65.0,63.2,29.71,SE,141,1.0,11.0,94,0.00,,,0.08,Wunderground v.1.15,2013-05-06 01:15:00,
2013-05-05 21:21:00,65.0,63.2,29.71,South,172,1.0,11.0,94,0.00,,,0.08,Wunderground v.1.15,2013-05-06 01:21:00,
2013-05-05 21:26:00,65.0,63.2,29.71,ENE,71,2.0,7.0,94,0.00,,,0.08,Wunderground v.1.15,2013-05-06 01:26:00,
2013-05-05 21:31:00,65.0,63.2,29.72,SSE,147,3.0,7.0,94,0.00,,,0.08,Wunderground v.1.15,2013-05-06 01:31:00,
2013-05-05 21:36:00,65.0,64.4,29.72,East,86,2.0,3.0,98,0.00,,,0.08,Wunderground v.1.15,2013-05-06 01:36:00,
2013-05-05 21:41:00,65.0,63.2,29.72,ESE,123,2.0,3.0,94,0.00,,,0.08,Wunderground v.1.15,2013-05-06 01:41:00,
2013-05-05 21:47:00,65.0,63.2,29.72,ENE,67,2.0,4.0,94,0.00,,,0.08,Wunderground v.1.15,2013-05-06 01:47:00,
2013-05-05 21:53:00,64.8,62.7,29.72,SE,144,3.0,6.0,93,0.00,,,0.08,Wunderground v.1.15,2013-05-06 01:53:00,
2013-05-05 21:58:00,64.8,62.4,29.72,East,79,3.0,6.0,92,0.00,,,0.08,Wunderground v.1.15,2013-05-06 01:58:00,
2013-05-05 22:03:00,64.8,62.4,29.73,SE,134,3.0,7.0,92,0.00,,,0.08,Wunderground v.1.15,2013-05-06 02:03:00,
2013-05-05 22:08:00,64.7,62.3,29.73,ESE,111,2.0,7.0,92,0.00,,,0.08,Wunderground v.1.15,2013-05-06 02:08:00,
2013-05-05 22:13:00,64.8,62.1,29.73,East,90,3.0,6.0,91,0.00,,,0.08,Wunderground v.1.15,2013-05-06 02:13:00,
2013-05-05 22:19:00,64.8,62.4,29.73,ESE,109,2.0,6.0,92,0.00,,,0.08,Wunderground v.1.15,2013-05-06 02:19:00,
2013-05-05 22:24:00,64.8,62.4,29.73,East,98,2.0,5.0,92,0.00,,,0.09,Wunderground v.1.15,2013-05-06 02:24:00,
2013-05-05 22:29:00,64.8,62.7,29.73,East,101,4.0,6.0,93,0.32,,,0.12,Wunderground v.1.15,2013-05-06 02:29:00,
2013-05-05 22:34:00,65.0,62.9,29.73,SE,136,4.0,6.0,93,0.15,,,0.13,Wunderground v.1.15,2013-05-06 02:34:00,
2013-05-05 22:39:00,65.0,63.2,29.73,NNW,329,4.0,8.0,94,0.09,,,0.13,Wunderground v.1.15,2013-05-06 02:39:00,
2013-05-05 22:44:00,65.0,63.2,29.72,SE,132,3.0,4.0,94,0.05,,,0.13,Wunderground v.1.15,2013-05-06 02:44:00,
2013-05-05 22:50:00,65.0,63.5,29.72,SSE,163,3.0,9.0,95,0.00,,,0.13,Wunderground v.1.15,2013-05-06 02:50:00,
2013-05-05 22:55:00,65.0,63.5,29.72,SE,126,3.0,3.0,95,0.00,,,0.13,Wunderground v.1.15,2013-05-06 02:55:00,
2013-05-05 23:00:00,64.8,63.3,29.72,SSE,161,3.0,9.0,95,0.00,,,0.13,Wunderground v.1.15,2013-05-06 03:00:00,
2013-05-05 23:05:00,64.7,63.2,29.72,ESE,123,2.0,3.0,95,0.00,,,0.13,Wunderground v.1.15,2013-05-06 03:05:00,
2013-05-05 23:10:00,64.3,62.5,29.72,SE,130,2.0,5.0,94,0.00,,,0.13,Wunderground v.1.15,2013-05-06 03:10:00,
2013-05-05 23:15:00,63.7,61.3,29.72,SE,143,2.0,2.0,92,0.00,,,0.13,Wunderground v.1.15,2013-05-06 03:15:00,
2013-05-05 23:20:00,63.2,60.8,29.72,ESE,119,1.0,3.0,92,0.00,,,0.13,Wunderground v.1.15,2013-05-06 03:20:00,
2013-05-05 23:25:00,62.7,60.3,29.72,East,83,1.0,2.0,92,0.00,,,0.13,Wunderground v.1.15,2013-05-06 03:25:00,
2013-05-05 23:31:00,62.9,60.5,29.72,ESE,115,2.0,9.0,92,0.00,,,0.13,Wunderground v.1.15,2013-05-06 03:31:00,
2013-05-05 23:36:00,63.1,61.0,29.72,SSE,162,3.0,15.0,93,0.00,,,0.14,Wunderground v.1.15,2013-05-06 03:36:00,
2013-05-05 23:41:00,63.4,61.0,29.72,SSE,167,5.0,15.0,92,0.00,,,0.14,Wunderground v.1.15,2013-05-06 03:41:00,
2013-05-05 23:46:00,63.5,60.8,29.72,ESE,112,4.0,5.0,91,0.00,,,0.14,Wunderground v.1.15,2013-05-06 03:46:00,
2013-05-05 23:51:00,63.5,61.1,29.72,SSE,158,3.0,6.0,92,0.00,,,0.14,Wunderground v.1.15,2013-05-06 03:51:00,
2013-05-05 23:56:00,63.7,61.3,29.72,ESE,121,2.0,5.0,92,0.00,,,0.14,Wunderground v.1.15,2013-05-06 03:56:00,